createdAt,value
2022-07-26T00:04:45.955Z,2.42
2022-07-26T00:09:54.069Z,2.10
2022-07-26T00:14:58.109Z,2.30
2022-07-26T00:20:01.592Z,2.50
2022-07-26T00:25:09.312Z,2.65
2022-07-26T00:30:14.083Z,3.10
2022-07-26T00:35:24.949Z,2.60
2022-07-26T00:40:28.508Z,3.05
2022-07-26T00:45:31.871Z,2.72
2022-07-26T00:50:35.952Z,2.67
2022-07-26T00:55:39.901Z,3.17
2022-07-26T01:00:43.751Z,3.25
2022-07-26T01:05:47.787Z,2.72
2022-07-26T01:10:51.927Z,2.60
2022-07-26T01:15:55.774Z,2.45
2022-07-26T01:21:13.182Z,2.25
2022-07-26T01:26:17.890Z,3.72
2022-07-26T01:31:27.466Z,2.33
2022-07-26T01:36:31.162Z,2.60
2022-07-26T01:41:37.430Z,2.55
2022-07-26T01:46:41.874Z,2.42
2022-07-26T01:51:45.383Z,2.50
2022-07-26T01:56:48.906Z,2.90
2022-07-26T02:01:52.538Z,4.13
2022-07-26T02:06:56.381Z,2.33
2022-07-26T02:11:59.892Z,2.42
2022-07-26T02:17:10.817Z,3.10
2022-07-26T02:22:14.392Z,2.95
2022-07-26T02:27:18.879Z,2.83
2022-07-26T02:32:22.357Z,3.08
2022-07-26T02:37:25.689Z,2.85
2022-07-26T02:42:29.083Z,2.42
2022-07-26T02:47:32.858Z,2.63
2022-07-26T02:52:36.276Z,2.67
2022-07-26T02:57:46.404Z,2.60
2022-07-26T03:02:53.715Z,2.83
2022-07-26T03:08:07.569Z,4.28
2022-07-26T03:13:10.948Z,3.45
2022-07-26T03:18:14.575Z,3.13
2022-07-26T03:23:18.037Z,3.33
2022-07-26T03:28:21.700Z,3.70
2022-07-26T03:33:25.245Z,3.90
2022-07-26T03:38:36.940Z,4.36
2022-07-26T03:43:40.777Z,3.75
2022-07-26T03:48:44.641Z,3.78
2022-07-26T03:53:48.030Z,4.22
2022-07-26T03:59:15.328Z,4.10
2022-07-26T04:04:18.984Z,3.92
2022-07-26T04:09:28.926Z,3.53
2022-07-26T04:14:32.453Z,3.85
2022-07-26T04:19:37.499Z,4.03
2022-07-26T04:24:43.615Z,3.30
2022-07-26T04:29:50.339Z,4.05
2022-07-26T04:34:59.433Z,4.15
2022-07-26T04:40:03.694Z,4.00
2022-07-26T04:45:08.875Z,4.25
2022-07-26T04:50:13.147Z,3.08
2022-07-26T04:55:19.365Z,3.20
2022-07-26T05:00:24.095Z,3.55
2022-07-26T05:05:30.312Z,2.75
2022-07-26T05:10:37.285Z,3.70
2022-07-26T05:15:42.267Z,3.33
2022-07-26T05:20:46.567Z,2.72
2022-07-26T05:25:50.367Z,2.25
2022-07-26T05:30:53.767Z,4.43
2022-07-26T05:35:57.450Z,3.85
2022-07-26T05:41:01.582Z,4.03
2022-07-26T05:46:09.588Z,3.33
2022-07-26T05:51:13.587Z,3.40
2022-07-26T05:56:17.129Z,2.67
2022-07-26T06:01:20.914Z,3.15
2022-07-26T06:06:26.716Z,2.13
2022-07-26T06:11:30.197Z,2.42
2022-07-26T06:16:33.886Z,2.38
2022-07-26T06:21:37.555Z,2.92
2022-07-26T06:26:41.119Z,3.33
2022-07-26T06:31:45.581Z,3.83
2022-07-26T06:36:49.382Z,2.50
2022-07-26T06:41:53.024Z,2.53
2022-07-26T06:46:59.823Z,2.05
2022-07-26T06:52:03.288Z,3.08
2022-07-26T06:57:06.485Z,2.47
2022-07-26T07:02:10.522Z,2.53
2022-07-26T07:07:15.033Z,2.50
2022-07-26T07:12:20.159Z,1.88
2022-07-26T07:17:24.520Z,3.00
2022-07-26T07:22:27.918Z,1.92
2022-07-26T07:27:32.151Z,3.40
2022-07-26T07:32:38.580Z,2.20
2022-07-26T07:37:52.746Z,2.33
2022-07-26T07:42:57.869Z,2.53
2022-07-26T07:48:01.257Z,2.00
2022-07-26T07:53:04.845Z,2.20
2022-07-26T07:58:09.551Z,1.60
2022-07-26T08:03:13.168Z,2.80
2022-07-26T08:08:22.823Z,1.65
2022-07-26T08:13:26.523Z,1.80
2022-07-26T08:18:30.588Z,1.85
2022-07-26T08:23:34.323Z,2.40
2022-07-26T08:28:47.316Z,2.10
2022-07-26T08:33:52.485Z,2.00
2022-07-26T08:38:56.191Z,2.05
2022-07-26T08:44:12.196Z,1.50
2022-07-26T08:49:21.487Z,1.70
2022-07-26T08:54:24.968Z,1.58
2022-07-26T08:59:28.778Z,1.40
2022-07-26T09:04:43.164Z,2.53
2022-07-26T09:10:12.670Z,1.92
2022-07-26T09:15:23.374Z,2.03
2022-07-26T09:20:29.265Z,1.77
2022-07-26T09:25:38.797Z,2.33
2022-07-26T09:30:57.957Z,2.22
2022-07-26T09:36:07.268Z,1.35
2022-07-26T09:41:30.550Z,2.10
2022-07-26T09:46:34.510Z,1.30
2022-07-26T09:51:41.590Z,1.50
2022-07-26T09:56:53.174Z,1.40
2022-07-26T10:02:05.170Z,1.33
2022-07-26T10:07:10.715Z,2.30
2022-07-26T10:12:16.939Z,1.38
2022-07-26T10:17:31.633Z,1.20
2022-07-26T10:22:41.093Z,1.38
2022-07-26T10:27:56.391Z,1.20
2022-07-26T10:33:07.335Z,1.30
2022-07-26T10:38:15.334Z,1.45
2022-07-26T10:49:05.257Z,1.30
2022-07-26T10:54:11.705Z,1.60
2022-07-26T10:59:54.318Z,1.45
2022-07-26T11:05:12.938Z,1.30
2022-07-26T11:10:16.858Z,1.40
2022-07-26T11:15:20.764Z,1.17
2022-07-26T11:20:29.860Z,1.58
2022-07-26T11:25:33.859Z,1.20
2022-07-26T11:30:55.907Z,1.40
2022-07-26T11:35:59.362Z,1.27
2022-07-26T11:41:02.772Z,1.27
2022-07-26T11:46:07.055Z,2.72
2022-07-26T11:51:16.053Z,1.35
2022-07-26T11:56:29.306Z,1.35
2022-07-26T12:01:33.158Z,1.92
2022-07-26T12:06:39.437Z,1.40
2022-07-26T12:11:43.139Z,1.52
2022-07-26T12:16:47.794Z,1.20
2022-07-26T12:22:13.379Z,1.00
2022-07-26T12:27:22.151Z,1.20
2022-07-26T12:32:38.396Z,1.27
2022-07-26T12:37:51.146Z,1.38
2022-07-26T12:43:01.075Z,1.30
2022-07-26T12:48:09.281Z,1.58
2022-07-26T12:53:13.136Z,1.58
2022-07-26T12:58:16.707Z,1.13
2022-07-26T13:03:20.557Z,1.13
2022-07-26T13:08:24.258Z,1.60
2022-07-26T13:13:28.147Z,1.25
2022-07-26T13:18:31.687Z,1.30
2022-07-26T13:23:36.705Z,1.52
2022-07-26T13:28:41.788Z,1.30
2022-07-26T13:33:47.885Z,1.60
2022-07-26T13:38:51.509Z,1.40
2022-07-26T13:43:55.292Z,1.40
2022-07-26T13:49:01.621Z,1.35
2022-07-26T13:54:05.558Z,2.13
2022-07-26T13:59:09.828Z,1.17
2022-07-26T14:04:14.687Z,1.40
2022-07-26T14:09:19.952Z,1.42
2022-07-26T14:14:23.501Z,1.98
2022-07-26T14:19:26.883Z,1.52
2022-07-26T14:24:30.361Z,1.27
2022-07-26T14:29:33.533Z,1.63
2022-07-26T14:34:37.025Z,1.70
2022-07-26T14:39:42.456Z,1.77
2022-07-26T14:44:48.234Z,1.30
2022-07-26T14:49:51.859Z,1.27
2022-07-26T14:54:55.701Z,1.77
2022-07-26T14:59:59.664Z,1.48
2022-07-26T15:05:03.364Z,1.27
2022-07-26T15:10:08.899Z,2.03
2022-07-26T15:15:12.549Z,1.30
2022-07-26T15:20:16.307Z,1.30
2022-07-26T15:25:20.598Z,1.30
2022-07-26T15:30:25.640Z,1.50
2022-07-26T15:35:32.130Z,1.50
2022-07-26T15:40:39.650Z,2.05
2022-07-26T15:45:43.017Z,1.58
2022-07-26T15:50:49.382Z,1.73
2022-07-26T15:55:53.680Z,1.60
2022-07-26T16:00:57.057Z,1.63
2022-07-26T16:06:05.739Z,1.60
2022-07-26T16:11:09.966Z,1.50
2022-07-26T16:16:14.180Z,1.70
2022-07-26T16:21:18.328Z,1.92
2022-07-26T16:26:22.089Z,1.70
2022-07-26T16:31:25.654Z,1.50
2022-07-26T16:36:29.065Z,2.25
2022-07-26T16:41:32.405Z,1.65
2022-07-26T16:46:35.957Z,2.00
2022-07-26T16:51:39.495Z,1.75
2022-07-26T16:56:43.857Z,1.85
2022-07-26T17:01:47.478Z,1.90
2022-07-26T17:07:14.648Z,2.00
2022-07-26T17:12:15.208Z,1.90
2022-07-26T17:17:18.554Z,1.98
2022-07-26T17:22:22.290Z,1.75
2022-07-26T17:27:25.756Z,1.80
2022-07-26T17:32:29.486Z,2.10
2022-07-26T17:37:32.757Z,1.88
2022-07-26T17:42:37.813Z,2.67
2022-07-26T17:47:42.393Z,1.92
2022-07-26T17:52:46.036Z,2.53
2022-07-26T17:57:55.683Z,2.08
2022-07-26T18:02:59.271Z,2.17
2022-07-26T18:08:02.628Z,2.10
2022-07-26T18:13:06.111Z,1.98
2022-07-26T18:18:09.460Z,2.03
2022-07-26T18:23:12.813Z,2.63
2022-07-26T18:28:16.697Z,2.30
2022-07-26T18:33:20.298Z,2.38
2022-07-26T18:38:23.700Z,2.28
2022-07-26T18:43:27.655Z,2.47
2022-07-26T18:48:31.686Z,2.20
2022-07-26T18:53:36.255Z,2.67
2022-07-26T18:58:39.786Z,3.15
2022-07-26T19:03:43.586Z,2.90
2022-07-26T19:08:47.561Z,2.50
2022-07-26T19:13:50.996Z,2.42
2022-07-26T19:18:57.478Z,2.33
2022-07-26T19:24:01.207Z,2.33
2022-07-26T19:29:04.822Z,2.53
2022-07-26T19:34:09.287Z,2.42
2022-07-26T19:39:13.184Z,2.50
2022-07-26T19:44:17.412Z,2.10
2022-07-26T19:49:20.995Z,2.40
2022-07-26T19:54:25.242Z,2.22
2022-07-26T19:59:28.980Z,2.38
2022-07-26T20:04:32.522Z,2.70
2022-07-26T20:09:36.285Z,2.50
2022-07-26T20:14:40.359Z,2.55
2022-07-26T20:19:44.037Z,2.03
2022-07-26T20:24:47.435Z,2.33
2022-07-26T20:29:51.692Z,2.10
2022-07-26T20:34:56.198Z,2.50
2022-07-26T20:39:59.409Z,2.90
2022-07-26T20:45:05.036Z,2.22
2022-07-26T20:50:14.707Z,2.90
2022-07-26T20:55:18.272Z,2.40
2022-07-26T21:00:22.066Z,2.78
2022-07-26T21:05:29.693Z,2.67
2022-07-26T21:10:36.191Z,2.85
2022-07-26T21:15:40.189Z,3.10
2022-07-26T21:20:43.899Z,3.55
2022-07-26T21:25:47.632Z,3.17
2022-07-26T21:30:51.105Z,3.25
2022-07-26T21:35:54.446Z,2.50
2022-07-26T21:40:59.565Z,3.05
2022-07-26T21:46:08.965Z,2.63
2022-07-26T21:51:15.689Z,3.10
2022-07-26T21:56:21.431Z,2.78
2022-07-26T22:01:28.181Z,2.40
2022-07-26T22:06:31.741Z,2.35
2022-07-26T22:11:35.482Z,2.08
2022-07-26T22:16:39.363Z,2.67
2022-07-26T22:21:42.944Z,2.55
2022-07-26T22:26:46.606Z,2.38
2022-07-26T22:31:50.338Z,2.72
2022-07-26T22:36:55.100Z,2.53
2022-07-26T22:42:14.744Z,2.80
2022-07-26T22:47:18.764Z,2.20
2022-07-26T22:52:21.991Z,2.42
2022-07-26T22:57:26.060Z,2.47
2022-07-26T23:02:29.779Z,2.80
2022-07-26T23:07:33.451Z,2.15
2022-07-26T23:12:37.770Z,2.90
2022-07-26T23:17:41.690Z,2.60
2022-07-26T23:22:45.813Z,2.50
2022-07-26T23:27:49.450Z,2.97
2022-07-26T23:32:53.049Z,3.22
2022-07-26T23:37:56.701Z,2.70
2022-07-26T23:43:00.081Z,2.65
2022-07-26T23:48:03.752Z,2.78
2022-07-26T23:53:07.736Z,2.83
2022-07-26T23:58:11.702Z,2.72
